Jpo Aquarius — CQHE — position and weather

sailwx.info

Track history (hours):
 
Tides and Currents Weather Stations Pressure Air Temp Water Temp Dewpoint Dewpoint Depression Visibility Wind Speed Wind Dir Waves Ship Positions

Jpo Aquarius

Last reported at 2017-Dec-11 16:59 UTC. Time now 2017-Dec-14 00:19 UTC.
Position N 09°21' W 079°54'.

Length 207 m; draft 11.2 m.

Type: Ship. MMSI: 255805580.

Date/timePositionNaut miles runAvg speedWind from/ knotsBaromVisibWave heightAir tempDewpointWater temp
2017-Dec-11 16:59N 09°21' W 079°54'0 0.0
2017-Dec-11 16:29N 09°21' W 079°54'0 0.0
2017-Dec-11 15:59N 09°21' W 079°54'0 0.0
2017-Dec-11 15:29N 09°21' W 079°54'0 0.0
2017-Dec-11 14:59N 09°21' W 079°54'0 0.0
2017-Dec-11 14:29N 09°21' W 079°54'0 0.0
2017-Dec-11 13:59N 09°21' W 079°54'0 0.0
2017-Dec-11 13:29N 09°21' W 079°54'0 0.1
2017-Dec-11 13:01N 09°21' W 079°55'1 1.9
2017-Dec-11 12:30N 09°22' W 079°55'2 4.8
2017-Dec-11 12:00N 09°24' W 079°55'4 7.4
2017-Dec-11 11:30N 09°28' W 079°54'1 2.4
2017-Dec-11 11:01N 09°29' W 079°54'2 3.6
2017-Dec-11 10:30N 09°31' W 079°54'2 3.8
2017-Dec-11 10:00N 09°32' W 079°53'611.1
2017-Dec-11 09:30N 09°38' W 079°51'713.1
2017-Dec-11 08:59N 09°44' W 079°49'  
2017-Dec-02 21:05N 25°39' W 079°31'113.3
2017-Dec-02 21:00N 25°40' W 079°32'613.1
2017-Dec-02 20:30N 25°46' W 079°36'612.8
2017-Dec-02 20:00N 25°51' W 079°40'612.4
2017-Dec-02 19:30N 25°55' W 079°45'612.5
2017-Dec-02 19:00N 25°59' W 079°50'612.8
2017-Dec-02 18:30N 26°03' W 079°56'713.5
2017-Dec-02 18:01N 26°05' W 080°03'3 6.8
2017-Dec-02 17:30N 26°05' W 080°07'1 1.4
2017-Dec-02 16:48N 26°04' W 080°07'0 0.0
2017-Dec-02 16:30N 26°04' W 080°07'0 0.0
2017-Dec-02 16:00N 26°04' W 080°07'0 0.0
2017-Dec-02 15:29N 26°04' W 080°07'0 0.0
2017-Dec-02 14:57N 26°04' W 080°07'0 0.0
2017-Dec-02 14:27N 26°04' W 080°07'0 0.0
2017-Dec-02 14:00N 26°04' W 080°07'0 0.0
2017-Dec-02 13:30N 26°04' W 080°07'0 0.0
2017-Dec-02 13:00N 26°04' W 080°07'0 0.0
2017-Dec-02 12:30N 26°04' W 080°07'0 0.0
2017-Dec-02 12:00N 26°04' W 080°07'0 0.0
2017-Dec-02 11:30N 26°04' W 080°07'0 0.0
2017-Dec-02 11:00N 26°04' W 080°07'0 0.0
2017-Dec-02 10:30N 26°04' W 080°07'0 0.0
2017-Dec-02 09:57N 26°04' W 080°07'0 0.0
2017-Dec-02 09:30N 26°04' W 080°07'0 0.0
2017-Dec-02 09:00N 26°04' W 080°07'1 2.9
2017-Dec-02 08:30N 26°06' W 080°07'5 9.2
2017-Dec-02 08:00N 26°06' W 080°02'5 9.7
2017-Dec-02 07:30N 26°07' W 079°56'610.9
2017-Dec-02 07:00N 26°09' W 079°51'511.2
2017-Dec-02 06:30N 26°11' W 079°45'4 8.1
2017-Dec-02 06:00N 26°12' W 079°41'4 8.1
2017-Dec-02 05:30N 26°13' W 079°36'4 8.2
2017-Dec-02 05:00N 26°15' W 079°32'5 9.3
2017-Dec-02 04:30N 26°16' W 079°27'  
Track history (hours):
 
Tides and Currents Weather Stations Pressure Air Temp Water Temp Dewpoint Dewpoint Depression Visibility Wind Speed Wind Dir Waves Ship Positions

Jpo Aquarius

Last reported at 2017-Dec-11 16:59 UTC. Time now 2017-Dec-14 00:19 UTC.
Position N 09°21' W 079°54'.

Length 207 m; draft 11.2 m.

Type: Ship. MMSI: 255805580.

Date/timePositionNaut miles runAvg speedWind from/ knotsBaromVisibWave heightAir tempDewpointWater temp
2017-Dec-11 16:59N 09°21' W 079°54'0 0.0
2017-Dec-11 16:29N 09°21' W 079°54'0 0.0
2017-Dec-11 15:59N 09°21' W 079°54'0 0.0
2017-Dec-11 15:29N 09°21' W 079°54'0 0.0
2017-Dec-11 14:59N 09°21' W 079°54'0 0.0
2017-Dec-11 14:29N 09°21' W 079°54'0 0.0
2017-Dec-11 13:59N 09°21' W 079°54'0 0.0
2017-Dec-11 13:29N 09°21' W 079°54'0 0.1
2017-Dec-11 13:01N 09°21' W 079°55'1 1.9
2017-Dec-11 12:30N 09°22' W 079°55'2 4.8
2017-Dec-11 12:00N 09°24' W 079°55'4 7.4
2017-Dec-11 11:30N 09°28' W 079°54'1 2.4
2017-Dec-11 11:01N 09°29' W 079°54'2 3.6
2017-Dec-11 10:30N 09°31' W 079°54'2 3.8
2017-Dec-11 10:00N 09°32' W 079°53'611.1
2017-Dec-11 09:30N 09°38' W 079°51'713.1
2017-Dec-11 08:59N 09°44' W 079°49'  
2017-Dec-02 21:05N 25°39' W 079°31'113.3
2017-Dec-02 21:00N 25°40' W 079°32'613.1
2017-Dec-02 20:30N 25°46' W 079°36'612.8
2017-Dec-02 20:00N 25°51' W 079°40'612.4
2017-Dec-02 19:30N 25°55' W 079°45'612.5
2017-Dec-02 19:00N 25°59' W 079°50'612.8
2017-Dec-02 18:30N 26°03' W 079°56'713.5
2017-Dec-02 18:01N 26°05' W 080°03'3 6.8
2017-Dec-02 17:30N 26°05' W 080°07'1 1.4
2017-Dec-02 16:48N 26°04' W 080°07'0 0.0
2017-Dec-02 16:30N 26°04' W 080°07'0 0.0
2017-Dec-02 16:00N 26°04' W 080°07'0 0.0
2017-Dec-02 15:29N 26°04' W 080°07'0 0.0
2017-Dec-02 14:57N 26°04' W 080°07'0 0.0
2017-Dec-02 14:27N 26°04' W 080°07'0 0.0
2017-Dec-02 14:00N 26°04' W 080°07'0 0.0
2017-Dec-02 13:30N 26°04' W 080°07'0 0.0
2017-Dec-02 13:00N 26°04' W 080°07'0 0.0
2017-Dec-02 12:30N 26°04' W 080°07'0 0.0
2017-Dec-02 12:00N 26°04' W 080°07'0 0.0
2017-Dec-02 11:30N 26°04' W 080°07'0 0.0
2017-Dec-02 11:00N 26°04' W 080°07'0 0.0
2017-Dec-02 10:30N 26°04' W 080°07'0 0.0
2017-Dec-02 09:57N 26°04' W 080°07'0 0.0
2017-Dec-02 09:30N 26°04' W 080°07'0 0.0
2017-Dec-02 09:00N 26°04' W 080°07'1 2.9
2017-Dec-02 08:30N 26°06' W 080°07'5 9.2
2017-Dec-02 08:00N 26°06' W 080°02'5 9.7
2017-Dec-02 07:30N 26°07' W 079°56'610.9
2017-Dec-02 07:00N 26°09' W 079°51'511.2
2017-Dec-02 06:30N 26°11' W 079°45'4 8.1
2017-Dec-02 06:00N 26°12' W 079°41'4 8.1
2017-Dec-02 05:30N 26°13' W 079°36'4 8.2
2017-Dec-02 05:00N 26°15' W 079°32'5 9.3
2017-Dec-02 04:30N 26°16' W 079°27'  

Dump ship's entire track history